createdAt,value
2023-01-21T00:01:01.170Z,6.15
2023-01-21T00:03:28.047Z,6.23
2023-01-21T00:05:55.044Z,6.25
2023-01-21T00:08:21.928Z,6.04
2023-01-21T00:10:48.780Z,6.15
2023-01-21T00:13:15.492Z,6.21
2023-01-21T00:15:42.249Z,6.17
2023-01-21T00:18:09.211Z,6.26
2023-01-21T00:20:36.291Z,6.06
2023-01-21T00:23:03.103Z,6.16
2023-01-21T00:25:35.776Z,6.19
2023-01-21T00:28:03.420Z,6.08
2023-01-21T00:30:30.753Z,6.07
2023-01-21T00:32:57.517Z,6.21
2023-01-21T00:35:24.315Z,6.07
2023-01-21T00:37:51.826Z,6.26
2023-01-21T00:40:19.131Z,6.36
2023-01-21T00:42:46.177Z,6.19
2023-01-21T00:45:12.932Z,6.38
2023-01-21T00:47:40.270Z,6.25
2023-01-21T00:50:07.738Z,6.32
2023-01-21T00:52:34.480Z,6.24
2023-01-21T00:55:01.281Z,6.24
2023-01-21T00:57:28.101Z,6.28
2023-01-21T00:59:54.992Z,6.29
2023-01-21T01:02:21.790Z,5.95
2023-01-21T01:04:48.635Z,5.93
2023-01-21T01:07:15.484Z,5.83
2023-01-21T01:09:42.295Z,5.90
2023-01-21T01:12:09.070Z,6.08
2023-01-21T01:14:36.241Z,5.62
2023-01-21T01:17:03.083Z,5.93
2023-01-21T01:19:30.549Z,5.80
2023-01-21T01:21:57.515Z,5.72
2023-01-21T01:24:24.368Z,5.75
2023-01-21T01:26:51.066Z,5.76
2023-01-21T01:29:18.692Z,5.77
2023-01-21T01:31:45.738Z,5.60
2023-01-21T01:34:12.706Z,5.58
2023-01-21T01:36:39.520Z,5.46
2023-01-21T01:39:06.409Z,5.44
2023-01-21T01:41:35.341Z,5.49
2023-01-21T01:44:24.393Z,5.19
2023-01-21T01:46:51.357Z,5.29
2023-01-21T01:49:21.324Z,5.38
2023-01-21T01:51:55.316Z,5.53
2023-01-21T01:54:34.706Z,5.02
2023-01-21T01:57:03.050Z,5.00
2023-01-21T01:59:30.719Z,5.11
2023-01-21T02:01:59.390Z,5.54
2023-01-21T02:04:30.161Z,5.40
2023-01-21T02:06:57.804Z,5.47
2023-01-21T02:09:30.090Z,5.27
2023-01-21T02:11:58.660Z,5.41
2023-01-21T02:14:25.717Z,5.02
2023-01-21T02:17:02.555Z,4.98
2023-01-21T02:19:29.234Z,5.28
2023-01-21T02:22:23.112Z,5.44
2023-01-21T02:24:55.891Z,5.30
2023-01-21T02:27:42.811Z,5.30
2023-01-21T02:30:41.355Z,5.57
2023-01-21T02:33:09.906Z,5.65
2023-01-21T02:35:45.747Z,5.57
2023-01-21T02:38:22.341Z,5.74
2023-01-21T02:41:01.718Z,5.76
2023-01-21T02:43:44.417Z,5.55
2023-01-21T02:46:46.162Z,5.43
2023-01-21T02:49:24.633Z,5.52
2023-01-21T02:51:51.442Z,5.49
2023-01-21T02:54:40.338Z,5.41
2023-01-21T02:57:09.067Z,5.51
2023-01-21T02:59:36.951Z,5.41
2023-01-21T03:02:15.820Z,5.52
2023-01-21T03:05:19.301Z,5.34
2023-01-21T03:08:01.913Z,5.34
2023-01-21T03:10:49.648Z,5.42
2023-01-21T03:13:51.391Z,5.53
2023-01-21T03:16:40.350Z,5.43
2023-01-21T03:19:09.777Z,5.43
2023-01-21T03:21:36.966Z,5.30
2023-01-21T03:24:04.304Z,5.26
2023-01-21T03:26:33.804Z,5.22
2023-01-21T03:29:05.157Z,5.17
2023-01-21T03:31:33.880Z,5.26
2023-01-21T03:34:04.269Z,5.27
2023-01-21T03:36:37.419Z,5.43
2023-01-21T03:39:10.452Z,5.41
2023-01-21T03:41:39.022Z,5.43
2023-01-21T03:44:06.278Z,5.21
2023-01-21T03:46:45.489Z,5.19
2023-01-21T03:49:41.920Z,4.79
2023-01-21T03:52:10.131Z,4.89
2023-01-21T03:54:36.984Z,4.88
2023-01-21T03:57:03.805Z,4.41
2023-01-21T03:59:30.526Z,4.65
2023-01-21T04:01:57.316Z,4.91
2023-01-21T04:04:24.118Z,4.92
2023-01-21T04:06:51.076Z,4.58
2023-01-21T04:09:17.837Z,4.88
2023-01-21T04:11:44.975Z,5.03
2023-01-21T04:14:12.155Z,4.80
2023-01-21T04:16:39.435Z,4.34
2023-01-21T04:19:06.416Z,4.78
2023-01-21T04:21:33.160Z,4.64
2023-01-21T04:23:59.913Z,4.33
2023-01-21T04:26:27.597Z,4.13
2023-01-21T04:28:54.570Z,4.23
2023-01-21T04:31:21.618Z,4.07
2023-01-21T04:33:48.570Z,4.17
2023-01-21T04:36:15.457Z,4.38
2023-01-21T04:38:42.301Z,4.24
2023-01-21T04:41:09.135Z,4.40
2023-01-21T04:43:36.064Z,4.66
2023-01-21T04:46:02.966Z,4.69
2023-01-21T04:48:29.795Z,4.82
2023-01-21T04:50:56.634Z,4.34
2023-01-21T04:53:23.458Z,4.35
2023-01-21T04:55:53.834Z,3.91
2023-01-21T04:58:21.235Z,4.03
2023-01-21T05:00:48.150Z,4.46
2023-01-21T05:03:15.473Z,4.56
2023-01-21T05:05:42.326Z,4.46
2023-01-21T05:08:09.284Z,3.80
2023-01-21T05:10:36.240Z,4.14
2023-01-21T05:13:03.400Z,4.25
2023-01-21T05:15:30.322Z,4.50
2023-01-21T05:17:57.232Z,4.56
2023-01-21T05:20:23.964Z,4.60
2023-01-21T05:22:50.918Z,4.79
2023-01-21T05:25:17.836Z,4.40
2023-01-21T05:27:44.564Z,4.71
2023-01-21T05:30:11.705Z,4.83
2023-01-21T05:32:38.785Z,4.58
2023-01-21T05:35:05.986Z,4.55
2023-01-21T05:37:32.695Z,4.66
2023-01-21T05:39:59.512Z,4.81
2023-01-21T05:42:26.301Z,4.65
2023-01-21T05:44:53.408Z,4.78
2023-01-21T05:47:20.263Z,4.84
2023-01-21T05:49:47.572Z,4.88
2023-01-21T05:52:14.902Z,4.65
2023-01-21T05:54:49.247Z,4.86
2023-01-21T05:57:23.051Z,4.79
2023-01-21T05:59:49.780Z,4.56
2023-01-21T06:02:16.883Z,4.57
2023-01-21T06:04:43.755Z,4.65
2023-01-21T06:07:10.722Z,4.88
2023-01-21T06:09:37.484Z,4.83
2023-01-21T06:12:04.837Z,4.95
2023-01-21T06:14:31.561Z,4.99
2023-01-21T06:16:58.568Z,4.82
2023-01-21T06:19:25.327Z,5.01
2023-01-21T06:21:52.659Z,4.99
2023-01-21T06:24:19.468Z,5.05
2023-01-21T06:26:47.076Z,5.05
2023-01-21T06:29:14.024Z,5.03
2023-01-21T06:31:41.453Z,5.04
2023-01-21T06:34:09.354Z,4.95
2023-01-21T06:36:36.518Z,5.10
2023-01-21T06:39:03.191Z,4.98
2023-01-21T06:41:30.286Z,5.05
2023-01-21T06:43:57.015Z,5.06
2023-01-21T06:46:23.855Z,5.08
2023-01-21T06:48:52.231Z,5.11
2023-01-21T06:51:19.665Z,4.91
2023-01-21T06:53:46.500Z,5.02
2023-01-21T06:56:13.355Z,4.96
2023-01-21T06:58:40.159Z,4.82
2023-01-21T07:01:06.890Z,5.01
2023-01-21T07:03:33.687Z,5.09
2023-01-21T07:06:00.534Z,5.02
2023-01-21T07:08:27.363Z,5.07
2023-01-21T07:10:54.906Z,5.09
2023-01-21T07:13:21.616Z,5.08
2023-01-21T07:15:48.383Z,5.05
2023-01-21T07:18:15.108Z,5.01
2023-01-21T07:20:44.349Z,5.04
2023-01-21T07:23:11.040Z,4.96
2023-01-21T07:25:38.303Z,4.96
2023-01-21T07:28:05.204Z,4.98
2023-01-21T07:30:31.984Z,5.00
2023-01-21T07:32:58.668Z,5.02
2023-01-21T07:35:25.491Z,5.06
2023-01-21T07:37:52.380Z,4.92
2023-01-21T07:40:19.423Z,4.99
2023-01-21T07:42:54.174Z,5.01
2023-01-21T07:45:22.257Z,4.97
2023-01-21T07:47:49.460Z,4.82
2023-01-21T07:50:16.916Z,4.82
2023-01-21T07:52:43.781Z,4.92
2023-01-21T07:55:12.569Z,4.98
2023-01-21T07:57:39.554Z,5.04
2023-01-21T08:00:07.590Z,5.13
2023-01-21T08:02:46.099Z,5.20
2023-01-21T08:05:12.969Z,4.85
2023-01-21T08:07:39.742Z,5.15
2023-01-21T08:10:06.711Z,5.07
2023-01-21T08:12:33.489Z,5.15
2023-01-21T08:15:00.278Z,5.09
2023-01-21T08:17:27.230Z,5.03
2023-01-21T08:19:54.000Z,4.84
2023-01-21T08:22:20.748Z,4.90
2023-01-21T08:24:47.732Z,4.97
2023-01-21T08:27:14.739Z,4.88
2023-01-21T08:29:41.559Z,5.05
2023-01-21T08:32:08.223Z,5.03
2023-01-21T08:34:35.046Z,4.96
2023-01-21T08:37:01.894Z,5.13
2023-01-21T08:39:28.620Z,5.22
2023-01-21T08:41:55.359Z,4.87
2023-01-21T08:44:22.082Z,5.21
2023-01-21T08:46:49.075Z,4.92
2023-01-21T08:49:15.885Z,5.06
2023-01-21T08:51:43.168Z,5.36
2023-01-21T08:54:09.898Z,5.05
2023-01-21T08:56:36.663Z,4.38
2023-01-21T08:59:03.465Z,4.83
2023-01-21T09:01:30.218Z,4.99
2023-01-21T09:03:58.249Z,4.71
2023-01-21T09:06:27.946Z,5.03
2023-01-21T09:08:58.425Z,5.07
2023-01-21T09:11:25.976Z,4.65
2023-01-21T09:13:52.990Z,4.74
2023-01-21T09:16:21.857Z,5.05
2023-01-21T09:18:49.172Z,5.26
2023-01-21T09:21:16.672Z,5.16
2023-01-21T09:23:44.435Z,5.24
2023-01-21T09:26:22.389Z,5.67
2023-01-21T09:29:01.215Z,5.47
2023-01-21T09:31:29.743Z,5.14
2023-01-21T09:34:02.475Z,5.06
2023-01-21T09:36:31.830Z,5.08
2023-01-21T09:38:59.158Z,5.17
2023-01-21T09:41:47.507Z,4.89
2023-01-21T09:44:34.355Z,5.05
2023-01-21T09:47:25.958Z,5.54
2023-01-21T09:50:03.773Z,5.42
2023-01-21T09:52:52.392Z,5.47
2023-01-21T09:55:35.611Z,5.30
2023-01-21T09:58:26.909Z,5.65
2023-01-21T10:01:06.114Z,5.76
2023-01-21T10:03:46.143Z,6.02
2023-01-21T10:06:16.073Z,6.05
2023-01-21T10:08:46.222Z,6.19
2023-01-21T10:11:21.176Z,6.38
2023-01-21T10:14:23.643Z,6.32
2023-01-21T10:17:14.971Z,6.28
2023-01-21T10:19:51.034Z,6.07
2023-01-21T10:22:21.995Z,6.38
2023-01-21T10:24:52.417Z,5.65
2023-01-21T10:27:20.958Z,5.75
2023-01-21T10:29:55.940Z,5.94
2023-01-21T10:32:25.801Z,5.99
2023-01-21T10:34:55.577Z,5.98
2023-01-21T10:37:37.539Z,5.78
2023-01-21T10:40:43.973Z,5.65
2023-01-21T10:43:36.303Z,5.70
2023-01-21T10:46:30.556Z,6.14
2023-01-21T10:49:11.423Z,6.09
2023-01-21T10:51:44.081Z,5.94
2023-01-21T10:54:32.750Z,6.40
2023-01-21T10:57:37.093Z,6.42
2023-01-21T11:00:05.367Z,6.30
2023-01-21T11:02:34.090Z,6.13
2023-01-21T11:05:04.075Z,5.64
2023-01-21T11:07:39.379Z,6.16
2023-01-21T11:10:09.836Z,5.78
2023-01-21T11:12:36.638Z,5.69
2023-01-21T11:15:13.881Z,5.86
2023-01-21T11:17:42.445Z,5.65
2023-01-21T11:20:39.610Z,5.68
2023-01-21T11:23:07.668Z,5.71
2023-01-21T11:25:41.771Z,5.83
2023-01-21T11:28:26.504Z,6.10
2023-01-21T11:31:07.431Z,5.74
2023-01-21T11:33:34.764Z,5.54
2023-01-21T11:36:13.882Z,6.16
2023-01-21T11:38:40.952Z,5.84
2023-01-21T11:41:21.217Z,4.57
2023-01-21T11:43:51.311Z,5.31
2023-01-21T11:46:30.657Z,4.90
2023-01-21T11:49:19.237Z,4.74
2023-01-21T11:51:47.410Z,4.77
2023-01-21T11:54:22.005Z,4.98
2023-01-21T11:57:00.468Z,5.09
2023-01-21T11:59:34.284Z,5.25
2023-01-21T12:02:10.388Z,4.96
2023-01-21T12:04:37.607Z,4.90
2023-01-21T12:07:05.490Z,4.11
2023-01-21T12:09:32.246Z,4.85
2023-01-21T12:12:11.446Z,5.11
2023-01-21T12:14:59.271Z,5.45
2023-01-21T12:17:52.426Z,4.60
2023-01-21T12:20:33.652Z,4.78
2023-01-21T12:23:26.212Z,4.40
2023-01-21T12:26:02.873Z,4.34
2023-01-21T12:31:51.169Z,4.25
2023-01-21T12:34:28.296Z,4.32
2023-01-21T12:37:00.121Z,4.43
2023-01-21T12:39:33.452Z,4.38
2023-01-21T12:42:14.655Z,4.18
2023-01-21T12:44:53.369Z,4.53
2023-01-21T12:47:53.987Z,4.63
2023-01-21T12:50:39.714Z,4.42
2023-01-21T12:53:09.714Z,4.12
2023-01-21T12:55:58.422Z,4.56
2023-01-21T12:58:35.319Z,4.11
2023-01-21T13:01:09.650Z,3.95
2023-01-21T13:04:05.131Z,3.78
2023-01-21T13:06:53.118Z,4.27
2023-01-21T13:09:32.748Z,4.48
2023-01-21T13:12:11.918Z,4.11
2023-01-21T13:14:48.364Z,4.90
2023-01-21T13:17:19.825Z,5.13
2023-01-21T13:19:46.878Z,5.25
2023-01-21T13:22:39.879Z,4.88
2023-01-21T13:25:22.069Z,4.73
2023-01-21T13:28:12.538Z,5.02
2023-01-21T13:30:47.764Z,5.27
2023-01-21T13:33:52.215Z,5.56
2023-01-21T13:36:56.723Z,5.38
2023-01-21T13:39:44.787Z,5.67
2023-01-21T13:42:50.221Z,5.98
2023-01-21T13:45:46.070Z,5.87
2023-01-21T13:48:24.698Z,6.21
2023-01-21T13:51:05.644Z,6.34
2023-01-21T13:53:58.774Z,6.50
2023-01-21T13:56:45.096Z,6.38
2023-01-21T13:59:18.074Z,6.29
2023-01-21T14:01:55.124Z,6.53
2023-01-21T14:04:38.412Z,6.11
2023-01-21T14:07:22.423Z,6.56
2023-01-21T14:10:00.610Z,6.53
2023-01-21T14:12:41.903Z,6.30
2023-01-21T14:15:19.657Z,6.03
2023-01-21T14:18:18.715Z,6.19
2023-01-21T14:21:08.250Z,6.32
2023-01-21T14:23:39.343Z,6.01
2023-01-21T14:26:25.415Z,5.98
2023-01-21T14:29:06.678Z,6.19
2023-01-21T14:32:03.496Z,6.21
2023-01-21T14:34:35.199Z,6.10
2023-01-21T14:37:17.440Z,5.98
2023-01-21T14:39:58.366Z,6.22
2023-01-21T14:42:46.471Z,6.11
2023-01-21T14:45:15.978Z,6.30
2023-01-21T14:47:48.272Z,6.44
2023-01-21T14:50:43.047Z,6.40
2023-01-21T14:53:18.748Z,6.32
2023-01-21T14:55:45.728Z,6.25
2023-01-21T14:58:24.599Z,6.35
2023-01-21T15:00:51.672Z,6.28
2023-01-21T15:03:29.241Z,5.78
2023-01-21T15:06:00.499Z,6.11
2023-01-21T15:08:30.524Z,6.00
2023-01-21T15:11:08.209Z,6.17
2023-01-21T15:13:35.149Z,6.36
2023-01-21T15:16:26.615Z,6.51
2023-01-21T15:19:08.911Z,6.23
2023-01-21T15:21:42.294Z,6.43
2023-01-21T15:24:35.359Z,6.15
2023-01-21T15:27:18.481Z,6.47
2023-01-21T15:29:54.637Z,6.49
2023-01-21T15:32:38.851Z,6.58
2023-01-21T15:35:20.590Z,6.57
2023-01-21T15:37:52.184Z,6.46
2023-01-21T15:40:28.274Z,6.55
2023-01-21T15:43:05.815Z,6.48
2023-01-21T15:46:09.882Z,6.46
2023-01-21T15:49:02.136Z,6.51
2023-01-21T15:51:44.544Z,5.89
2023-01-21T15:54:17.360Z,6.23
2023-01-21T15:57:02.519Z,6.13
2023-01-21T15:59:56.886Z,6.12
2023-01-21T16:02:26.410Z,6.16
2023-01-21T16:05:31.156Z,6.25
2023-01-21T16:08:14.452Z,6.06
2023-01-21T16:11:13.852Z,6.01
2023-01-21T16:14:20.550Z,6.08
2023-01-21T16:17:07.059Z,5.63
2023-01-21T16:19:38.428Z,5.50
2023-01-21T16:22:07.843Z,5.50
2023-01-21T16:24:39.380Z,5.68
2023-01-21T16:27:26.928Z,5.58
2023-01-21T16:30:14.607Z,5.41
2023-01-21T16:32:42.235Z,5.30
2023-01-21T16:35:09.374Z,5.51
2023-01-21T16:37:36.828Z,5.45
2023-01-21T16:40:09.715Z,5.72
2023-01-21T16:42:40.969Z,5.50
2023-01-21T16:45:19.368Z,5.49
2023-01-21T16:47:53.563Z,5.73
2023-01-21T16:50:26.593Z,5.59
2023-01-21T16:52:55.016Z,5.22
2023-01-21T16:55:30.184Z,5.38
2023-01-21T16:57:59.118Z,5.49
2023-01-21T17:00:31.480Z,5.44
2023-01-21T17:02:59.584Z,5.48
2023-01-21T17:05:29.226Z,5.51
2023-01-21T17:08:02.361Z,5.54
2023-01-21T17:10:53.114Z,5.64
2023-01-21T17:13:20.264Z,5.50
2023-01-21T17:15:58.595Z,5.64
2023-01-21T17:18:39.516Z,5.51
2023-01-21T17:21:13.858Z,5.63
2023-01-21T17:23:51.630Z,5.83
2023-01-21T17:26:38.163Z,5.87
2023-01-21T17:29:19.743Z,5.76
2023-01-21T17:31:55.089Z,5.77
2023-01-21T17:34:28.125Z,5.81
2023-01-21T17:36:55.614Z,5.44
2023-01-21T17:39:50.296Z,5.67
2023-01-21T17:42:19.263Z,5.43
2023-01-21T17:44:51.535Z,5.51
2023-01-21T17:47:33.246Z,5.43
2023-01-21T17:50:09.238Z,5.57
2023-01-21T17:52:36.327Z,5.70
2023-01-21T17:55:31.070Z,5.80
2023-01-21T17:58:00.315Z,5.61
2023-01-21T18:00:39.505Z,5.77
2023-01-21T18:03:06.508Z,5.81
2023-01-21T18:05:33.386Z,5.74
2023-01-21T18:08:00.323Z,5.74
2023-01-21T18:10:28.926Z,5.65
2023-01-21T18:12:58.180Z,5.72
2023-01-21T18:15:26.140Z,5.75
2023-01-21T18:18:00.516Z,5.44
2023-01-21T18:20:29.183Z,5.58
2023-01-21T18:22:57.788Z,5.91
2023-01-21T18:25:26.294Z,5.76
2023-01-21T18:27:56.675Z,5.80
2023-01-21T18:30:29.169Z,5.80
2023-01-21T18:32:57.129Z,5.75
2023-01-21T18:35:28.675Z,5.64
2023-01-21T18:37:57.334Z,5.92
2023-01-21T18:40:27.276Z,5.89
2023-01-21T18:42:56.015Z,5.47
2023-01-21T18:45:26.591Z,5.81
2023-01-21T18:47:53.788Z,5.68
2023-01-21T18:50:26.034Z,5.74
2023-01-21T18:52:57.973Z,5.82
2023-01-21T18:55:31.887Z,5.91
2023-01-21T18:58:08.057Z,5.76
2023-01-21T19:00:34.963Z,5.93
2023-01-21T19:03:01.898Z,5.84
2023-01-21T19:05:36.316Z,6.02
2023-01-21T19:08:16.858Z,5.85
2023-01-21T19:10:43.938Z,5.78
2023-01-21T19:13:11.898Z,5.78
2023-01-21T19:15:39.063Z,6.05
2023-01-21T19:18:13.694Z,5.97
2023-01-21T19:20:41.834Z,5.64
2023-01-21T19:23:17.053Z,5.68
2023-01-21T19:25:48.231Z,5.86
2023-01-21T19:28:17.618Z,5.88
2023-01-21T19:30:47.978Z,5.70
2023-01-21T19:33:15.865Z,5.39
2023-01-21T19:35:46.649Z,5.59
2023-01-21T19:38:21.240Z,5.81
2023-01-21T19:40:48.248Z,5.67
2023-01-21T19:43:18.388Z,5.76
2023-01-21T19:45:45.301Z,5.76
2023-01-21T19:48:16.984Z,5.78
2023-01-21T19:50:43.970Z,5.60
2023-01-21T19:53:14.632Z,5.45
2023-01-21T19:55:42.126Z,5.52
2023-01-21T19:58:19.757Z,5.19
2023-01-21T20:00:49.493Z,5.13
2023-01-21T20:03:19.695Z,5.30
2023-01-21T20:05:58.327Z,5.33
2023-01-21T20:08:27.620Z,5.15
2023-01-21T20:10:54.919Z,5.15
2023-01-21T20:13:22.018Z,5.16
2023-01-21T20:15:50.387Z,4.84
2023-01-21T20:18:25.934Z,4.97
2023-01-21T20:20:53.455Z,4.82
2023-01-21T20:23:21.553Z,4.95
2023-01-21T20:25:54.682Z,4.88
2023-01-21T20:28:23.051Z,4.81
2023-01-21T20:30:51.469Z,5.13
2023-01-21T20:33:21.650Z,4.93
2023-01-21T20:35:54.867Z,5.28
2023-01-21T20:38:28.380Z,5.08
2023-01-21T20:40:57.856Z,4.99
2023-01-21T20:43:24.683Z,4.77
2023-01-21T20:45:51.837Z,5.00
2023-01-21T20:48:25.297Z,5.17
2023-01-21T20:50:55.456Z,5.21
2023-01-21T20:53:26.040Z,5.21
2023-01-21T20:55:53.399Z,5.12
2023-01-21T20:58:22.162Z,5.27
2023-01-21T21:00:49.486Z,5.01
2023-01-21T21:03:18.396Z,5.11
2023-01-21T21:05:46.929Z,5.06
2023-01-21T21:08:16.740Z,5.00
2023-01-21T21:10:44.381Z,4.90
2023-01-21T21:13:12.188Z,4.90
2023-01-21T21:15:39.633Z,5.07
2023-01-21T21:18:07.030Z,4.66
2023-01-21T21:20:37.046Z,5.09
2023-01-21T21:23:07.686Z,5.08
2023-01-21T21:25:40.697Z,4.90
2023-01-21T21:28:07.608Z,5.15
2023-01-21T21:30:34.992Z,5.56
2023-01-21T21:33:02.368Z,5.36
2023-01-21T21:35:35.315Z,5.23
2023-01-21T21:38:13.172Z,4.85
2023-01-21T21:40:40.084Z,5.05
2023-01-21T21:43:27.051Z,5.39
2023-01-21T21:46:12.744Z,5.53
2023-01-21T21:48:39.802Z,5.17
2023-01-21T21:51:14.493Z,4.90
2023-01-21T21:53:45.160Z,5.04
2023-01-21T21:56:17.372Z,5.25
2023-01-21T21:58:44.958Z,5.16
2023-01-21T22:01:22.294Z,5.04
2023-01-21T22:03:49.627Z,4.50
2023-01-21T22:06:20.863Z,4.86
2023-01-21T22:08:48.618Z,5.04
2023-01-21T22:11:20.038Z,5.49
2023-01-21T22:13:50.203Z,5.33
2023-01-21T22:16:28.274Z,5.67
2023-01-21T22:18:56.302Z,5.13
2023-01-21T22:21:27.940Z,5.33
2023-01-21T22:23:55.383Z,5.09
2023-01-21T22:26:24.883Z,5.19
2023-01-21T22:28:51.780Z,4.79
2023-01-21T22:31:24.823Z,5.19
2023-01-21T22:33:51.991Z,4.84
2023-01-21T22:36:20.928Z,5.00
2023-01-21T22:38:48.016Z,5.06
2023-01-21T22:41:16.845Z,5.11
2023-01-21T22:43:45.083Z,5.15
2023-01-21T22:46:13.987Z,4.53
2023-01-21T22:48:42.170Z,4.87
2023-01-21T22:51:12.159Z,4.71
2023-01-21T22:53:43.965Z,4.59
2023-01-21T22:56:13.063Z,4.88
2023-01-21T22:58:39.973Z,5.08
2023-01-21T23:01:07.401Z,5.49
2023-01-21T23:03:34.479Z,5.26
2023-01-21T23:06:08.472Z,5.02
2023-01-21T23:08:38.349Z,4.74
2023-01-21T23:11:06.878Z,5.03
2023-01-21T23:13:34.227Z,4.89
2023-01-21T23:16:01.589Z,5.08
2023-01-21T23:18:29.488Z,4.46
2023-01-21T23:20:56.373Z,4.59
2023-01-21T23:23:24.067Z,4.55
2023-01-21T23:25:51.115Z,4.82
2023-01-21T23:28:17.924Z,4.62
2023-01-21T23:30:45.001Z,4.75
2023-01-21T23:33:11.996Z,4.94
2023-01-21T23:35:38.637Z,4.54
2023-01-21T23:38:05.512Z,4.71
2023-01-21T23:40:32.377Z,4.86
2023-01-21T23:42:59.378Z,4.54
2023-01-21T23:45:26.142Z,4.70
2023-01-21T23:47:54.340Z,5.00
2023-01-21T23:50:21.239Z,4.47
2023-01-21T23:52:48.075Z,4.71
2023-01-21T23:55:14.937Z,4.77
2023-01-21T23:57:41.743Z,4.78
